sensor_id;sensor_type;location;lat;lon;timestamp;temperature;humidity
3713;DHT22;1872;51.406;6.856;2023-02-22T00:00:42;6.80;99.90
3713;DHT22;1872;51.406;6.856;2023-02-22T00:03:20;6.80;99.90
3713;DHT22;1872;51.406;6.856;2023-02-22T00:05:52;6.70;99.90
3713;DHT22;1872;51.406;6.856;2023-02-22T00:08:21;6.60;99.90
3713;DHT22;1872;51.406;6.856;2023-02-22T00:10:48;6.60;99.90
3713;DHT22;1872;51.406;6.856;2023-02-22T00:13:18;6.50;99.90
3713;DHT22;1872;51.406;6.856;2023-02-22T00:15:44;6.40;99.90
3713;DHT22;1872;51.406;6.856;2023-02-22T00:18:13;6.30;99.90
3713;DHT22;1872;51.406;6.856;2023-02-22T00:20:39;6.30;99.90
3713;DHT22;1872;51.406;6.856;2023-02-22T00:23:07;6.20;99.90
3713;DHT22;1872;51.406;6.856;2023-02-22T00:25:33;6.10;99.90
3713;DHT22;1872;51.406;6.856;2023-02-22T00:28:00;6.00;99.90
3713;DHT22;1872;51.406;6.856;2023-02-22T00:30:28;5.90;99.90
3713;DHT22;1872;51.406;6.856;2023-02-22T00:32:56;5.90;99.90
3713;DHT22;1872;51.406;6.856;2023-02-22T00:35:28;5.80;99.90
3713;DHT22;1872;51.406;6.856;2023-02-22T00:37:57;5.80;99.90
3713;DHT22;1872;51.406;6.856;2023-02-22T00:40:28;5.70;99.90
3713;DHT22;1872;51.406;6.856;2023-02-22T00:42:55;5.70;99.90
3713;DHT22;1872;51.406;6.856;2023-02-22T00:45:23;5.60;99.90
3713;DHT22;1872;51.406;6.856;2023-02-22T00:47:49;5.60;99.90
3713;DHT22;1872;51.406;6.856;2023-02-22T00:50:16;5.50;99.90
3713;DHT22;1872;51.406;6.856;2023-02-22T00:52:42;5.50;99.90
3713;DHT22;1872;51.406;6.856;2023-02-22T00:55:13;5.50;99.90
3713;DHT22;1872;51.406;6.856;2023-02-22T00:57:39;5.40;99.90
3713;DHT22;1872;51.406;6.856;2023-02-22T01:00:07;5.40;99.90
3713;DHT22;1872;51.406;6.856;2023-02-22T01:02:41;5.30;99.90
3713;DHT22;1872;51.406;6.856;2023-02-22T01:05:09;5.40;99.90
3713;DHT22;1872;51.406;6.856;2023-02-22T01:07:37;5.40;99.90
3713;DHT22;1872;51.406;6.856;2023-02-22T01:10:05;5.40;99.90
3713;DHT22;1872;51.406;6.856;2023-02-22T01:12:31;5.40;99.90
3713;DHT22;1872;51.406;6.856;2023-02-22T01:14:56;5.40;99.90
3713;DHT22;1872;51.406;6.856;2023-02-22T01:17:25;5.50;99.90
3713;DHT22;1872;51.406;6.856;2023-02-22T01:19:52;5.50;99.90
3713;DHT22;1872;51.406;6.856;2023-02-22T01:22:19;5.60;99.90
3713;DHT22;1872;51.406;6.856;2023-02-22T01:24:46;5.60;99.90
3713;DHT22;1872;51.406;6.856;2023-02-22T01:27:12;5.70;99.90
3713;DHT22;1872;51.406;6.856;2023-02-22T01:29:38;5.70;99.90
3713;DHT22;1872;51.406;6.856;2023-02-22T01:32:04;5.70;99.90
3713;DHT22;1872;51.406;6.856;2023-02-22T01:34:31;5.80;99.90
3713;DHT22;1872;51.406;6.856;2023-02-22T01:36:58;5.80;99.90
3713;DHT22;1872;51.406;6.856;2023-02-22T01:39:24;5.80;99.90
3713;DHT22;1872;51.406;6.856;2023-02-22T01:41:50;5.80;99.90
3713;DHT22;1872;51.406;6.856;2023-02-22T01:46:50;5.80;99.90
3713;DHT22;1872;51.406;6.856;2023-02-22T01:49:16;5.80;99.90
3713;DHT22;1872;51.406;6.856;2023-02-22T01:51:47;5.80;99.90
3713;DHT22;1872;51.406;6.856;2023-02-22T01:54:17;5.80;99.90
3713;DHT22;1872;51.406;6.856;2023-02-22T01:57:11;5.80;99.90
3713;DHT22;1872;51.406;6.856;2023-02-22T01:59:40;5.80;99.90
3713;DHT22;1872;51.406;6.856;2023-02-22T02:02:08;5.90;99.90
3713;DHT22;1872;51.406;6.856;2023-02-22T02:04:34;5.90;99.90
3713;DHT22;1872;51.406;6.856;2023-02-22T02:07:03;5.90;99.90
3713;DHT22;1872;51.406;6.856;2023-02-22T02:09:49;5.90;99.90
3713;DHT22;1872;51.406;6.856;2023-02-22T02:12:18;5.90;99.90
3713;DHT22;1872;51.406;6.856;2023-02-22T02:14:44;5.80;99.90
3713;DHT22;1872;51.406;6.856;2023-02-22T02:17:16;5.80;99.90
3713;DHT22;1872;51.406;6.856;2023-02-22T02:28:20;5.80;99.90
3713;DHT22;1872;51.406;6.856;2023-02-22T02:31:25;5.80;99.90
3713;DHT22;1872;51.406;6.856;2023-02-22T02:34:08;5.80;99.90
3713;DHT22;1872;51.406;6.856;2023-02-22T02:37:08;5.80;99.90
3713;DHT22;1872;51.406;6.856;2023-02-22T02:39:58;5.80;99.90
3713;DHT22;1872;51.406;6.856;2023-02-22T02:42:33;5.80;99.90
3713;DHT22;1872;51.406;6.856;2023-02-22T02:45:16;5.80;99.90
3713;DHT22;1872;51.406;6.856;2023-02-22T02:47:51;5.80;99.90
3713;DHT22;1872;51.406;6.856;2023-02-22T02:50:32;5.70;99.90
3713;DHT22;1872;51.406;6.856;2023-02-22T02:53:04;5.70;99.90
3713;DHT22;1872;51.406;6.856;2023-02-22T02:55:31;5.70;99.90
3713;DHT22;1872;51.406;6.856;2023-02-22T02:57:57;5.70;99.90
3713;DHT22;1872;51.406;6.856;2023-02-22T03:00:27;5.70;99.90
3713;DHT22;1872;51.406;6.856;2023-02-22T03:11:11;5.50;99.90
3713;DHT22;1872;51.406;6.856;2023-02-22T03:16:41;5.40;99.90
3713;DHT22;1872;51.406;6.856;2023-02-22T03:19:18;5.50;99.90
3713;DHT22;1872;51.406;6.856;2023-02-22T03:21:46;5.50;99.90
3713;DHT22;1872;51.406;6.856;2023-02-22T03:24:23;5.50;99.90
3713;DHT22;1872;51.406;6.856;2023-02-22T03:27:01;5.40;99.90
3713;DHT22;1872;51.406;6.856;2023-02-22T03:29:30;5.40;99.90
3713;DHT22;1872;51.406;6.856;2023-02-22T03:32:02;5.40;99.90
3713;DHT22;1872;51.406;6.856;2023-02-22T03:34:42;5.40;99.90
3713;DHT22;1872;51.406;6.856;2023-02-22T03:37:14;5.30;99.90
3713;DHT22;1872;51.406;6.856;2023-02-22T03:39:42;5.40;99.90
3713;DHT22;1872;51.406;6.856;2023-02-22T03:42:22;5.30;99.90
3713;DHT22;1872;51.406;6.856;2023-02-22T03:44:52;5.30;99.90
3713;DHT22;1872;51.406;6.856;2023-02-22T03:47:33;5.30;99.90
3713;DHT22;1872;51.406;6.856;2023-02-22T03:50:14;5.20;99.90
3713;DHT22;1872;51.406;6.856;2023-02-22T03:52:41;5.20;99.90
3713;DHT22;1872;51.406;6.856;2023-02-22T03:55:08;5.20;99.90
3713;DHT22;1872;51.406;6.856;2023-02-22T03:57:38;5.20;99.90
3713;DHT22;1872;51.406;6.856;2023-02-22T04:00:07;5.20;99.90
3713;DHT22;1872;51.406;6.856;2023-02-22T04:02:33;5.20;99.90
3713;DHT22;1872;51.406;6.856;2023-02-22T04:05:00;5.20;99.90
3713;DHT22;1872;51.406;6.856;2023-02-22T04:07:26;5.10;99.90
3713;DHT22;1872;51.406;6.856;2023-02-22T04:09:51;5.10;99.90
3713;DHT22;1872;51.406;6.856;2023-02-22T04:12:17;5.10;99.90
3713;DHT22;1872;51.406;6.856;2023-02-22T04:14:42;5.00;99.90
3713;DHT22;1872;51.406;6.856;2023-02-22T04:17:08;5.00;99.90
3713;DHT22;1872;51.406;6.856;2023-02-22T04:19:35;5.00;99.90
3713;DHT22;1872;51.406;6.856;2023-02-22T04:22:00;5.00;99.90
3713;DHT22;1872;51.406;6.856;2023-02-22T04:24:26;4.90;99.90
3713;DHT22;1872;51.406;6.856;2023-02-22T04:26:51;5.00;99.90
3713;DHT22;1872;51.406;6.856;2023-02-22T04:29:17;4.90;99.90
3713;DHT22;1872;51.406;6.856;2023-02-22T04:31:43;5.00;99.90
3713;DHT22;1872;51.406;6.856;2023-02-22T04:34:08;4.90;99.90
3713;DHT22;1872;51.406;6.856;2023-02-22T04:36:34;5.00;99.90
3713;DHT22;1872;51.406;6.856;2023-02-22T04:39:00;5.00;99.90
3713;DHT22;1872;51.406;6.856;2023-02-22T04:41:26;5.00;99.90
3713;DHT22;1872;51.406;6.856;2023-02-22T04:43:51;5.00;99.90
3713;DHT22;1872;51.406;6.856;2023-02-22T04:46:17;5.00;99.90
3713;DHT22;1872;51.406;6.856;2023-02-22T04:48:42;5.00;99.90
3713;DHT22;1872;51.406;6.856;2023-02-22T04:51:08;5.00;99.90
3713;DHT22;1872;51.406;6.856;2023-02-22T04:53:34;5.00;99.90
3713;DHT22;1872;51.406;6.856;2023-02-22T04:56:00;5.10;99.90
3713;DHT22;1872;51.406;6.856;2023-02-22T04:58:26;5.10;99.90
3713;DHT22;1872;51.406;6.856;2023-02-22T05:00:52;5.10;99.90
3713;DHT22;1872;51.406;6.856;2023-02-22T05:03:17;5.10;99.90
3713;DHT22;1872;51.406;6.856;2023-02-22T05:05:43;5.10;99.90
3713;DHT22;1872;51.406;6.856;2023-02-22T05:08:09;5.10;99.90
3713;DHT22;1872;51.406;6.856;2023-02-22T05:10:35;5.10;99.90
3713;DHT22;1872;51.406;6.856;2023-02-22T05:13:00;5.10;99.90
3713;DHT22;1872;51.406;6.856;2023-02-22T05:15:26;5.10;99.90
3713;DHT22;1872;51.406;6.856;2023-02-22T05:17:52;5.10;99.90
3713;DHT22;1872;51.406;6.856;2023-02-22T05:20:30;5.10;99.90
3713;DHT22;1872;51.406;6.856;2023-02-22T05:22:57;5.10;99.90
3713;DHT22;1872;51.406;6.856;2023-02-22T05:25:23;5.10;99.90
3713;DHT22;1872;51.406;6.856;2023-02-22T05:27:55;5.10;99.90
3713;DHT22;1872;51.406;6.856;2023-02-22T05:30:27;5.10;99.90
3713;DHT22;1872;51.406;6.856;2023-02-22T05:32:53;5.10;99.90
3713;DHT22;1872;51.406;6.856;2023-02-22T05:35:20;5.00;99.90
3713;DHT22;1872;51.406;6.856;2023-02-22T05:37:46;5.00;99.90
3713;DHT22;1872;51.406;6.856;2023-02-22T05:40:12;5.00;99.90
3713;DHT22;1872;51.406;6.856;2023-02-22T05:42:40;5.00;99.90
3713;DHT22;1872;51.406;6.856;2023-02-22T05:45:06;4.90;99.90
3713;DHT22;1872;51.406;6.856;2023-02-22T05:47:32;4.90;99.90
3713;DHT22;1872;51.406;6.856;2023-02-22T05:49:57;4.90;99.90
3713;DHT22;1872;51.406;6.856;2023-02-22T05:52:23;4.80;99.90
3713;DHT22;1872;51.406;6.856;2023-02-22T05:54:49;4.80;99.90
3713;DHT22;1872;51.406;6.856;2023-02-22T05:57:15;4.80;99.90
3713;DHT22;1872;51.406;6.856;2023-02-22T05:59:41;4.80;99.90
3713;DHT22;1872;51.406;6.856;2023-02-22T06:02:07;4.80;99.90
3713;DHT22;1872;51.406;6.856;2023-02-22T06:04:33;4.90;99.90
3713;DHT22;1872;51.406;6.856;2023-02-22T06:06:59;4.80;99.90
3713;DHT22;1872;51.406;6.856;2023-02-22T06:09:24;4.80;99.90
3713;DHT22;1872;51.406;6.856;2023-02-22T06:11:50;4.80;99.90
3713;DHT22;1872;51.406;6.856;2023-02-22T06:14:16;4.80;99.90
3713;DHT22;1872;51.406;6.856;2023-02-22T06:16:51;4.80;99.90
3713;DHT22;1872;51.406;6.856;2023-02-22T06:19:17;4.70;99.90
3713;DHT22;1872;51.406;6.856;2023-02-22T06:21:54;4.70;99.90
3713;DHT22;1872;51.406;6.856;2023-02-22T06:24:21;4.70;99.90
3713;DHT22;1872;51.406;6.856;2023-02-22T06:26:56;4.70;99.90
3713;DHT22;1872;51.406;6.856;2023-02-22T06:29:23;4.70;99.90
3713;DHT22;1872;51.406;6.856;2023-02-22T06:31:49;4.70;99.90
3713;DHT22;1872;51.406;6.856;2023-02-22T06:34:15;4.70;99.90
3713;DHT22;1872;51.406;6.856;2023-02-22T06:36:41;4.70;99.90
3713;DHT22;1872;51.406;6.856;2023-02-22T06:39:07;4.70;99.90
3713;DHT22;1872;51.406;6.856;2023-02-22T06:41:37;4.70;99.90
3713;DHT22;1872;51.406;6.856;2023-02-22T06:44:03;4.70;99.90
3713;DHT22;1872;51.406;6.856;2023-02-22T06:46:29;4.70;99.90
3713;DHT22;1872;51.406;6.856;2023-02-22T06:48:55;4.70;99.90
3713;DHT22;1872;51.406;6.856;2023-02-22T06:51:24;4.60;99.90
3713;DHT22;1872;51.406;6.856;2023-02-22T06:53:53;4.60;99.90
3713;DHT22;1872;51.406;6.856;2023-02-22T06:56:19;4.60;99.90
3713;DHT22;1872;51.406;6.856;2023-02-22T06:58:44;4.70;99.90
3713;DHT22;1872;51.406;6.856;2023-02-22T07:01:10;4.70;99.90
3713;DHT22;1872;51.406;6.856;2023-02-22T07:03:36;4.70;99.90
3713;DHT22;1872;51.406;6.856;2023-02-22T07:06:02;4.70;99.90
3713;DHT22;1872;51.406;6.856;2023-02-22T07:08:29;4.70;99.90
3713;DHT22;1872;51.406;6.856;2023-02-22T07:10:55;4.70;99.90
3713;DHT22;1872;51.406;6.856;2023-02-22T07:13:20;4.70;99.90
3713;DHT22;1872;51.406;6.856;2023-02-22T07:15:46;4.80;99.90
3713;DHT22;1872;51.406;6.856;2023-02-22T07:18:12;4.80;99.90
3713;DHT22;1872;51.406;6.856;2023-02-22T07:20:39;4.90;99.90
3713;DHT22;1872;51.406;6.856;2023-02-22T07:23:05;4.90;99.90
3713;DHT22;1872;51.406;6.856;2023-02-22T07:25:30;5.00;99.90
3713;DHT22;1872;51.406;6.856;2023-02-22T07:27:56;5.00;99.90
3713;DHT22;1872;51.406;6.856;2023-02-22T07:30:25;5.10;99.90
3713;DHT22;1872;51.406;6.856;2023-02-22T07:32:54;5.20;99.90
3713;DHT22;1872;51.406;6.856;2023-02-22T07:37:47;5.30;99.90
3713;DHT22;1872;51.406;6.856;2023-02-22T07:40:14;5.30;99.90
3713;DHT22;1872;51.406;6.856;2023-02-22T07:42:53;5.30;99.90
3713;DHT22;1872;51.406;6.856;2023-02-22T07:45:20;5.40;99.90
3713;DHT22;1872;51.406;6.856;2023-02-22T07:47:47;5.40;99.90
3713;DHT22;1872;51.406;6.856;2023-02-22T07:50:14;5.50;99.90
3713;DHT22;1872;51.406;6.856;2023-02-22T07:52:47;5.50;99.90
3713;DHT22;1872;51.406;6.856;2023-02-22T07:55:15;5.60;99.90
3713;DHT22;1872;51.406;6.856;2023-02-22T07:57:42;5.70;99.90
3713;DHT22;1872;51.406;6.856;2023-02-22T08:00:10;5.70;99.90
3713;DHT22;1872;51.406;6.856;2023-02-22T08:02:36;5.80;99.90
3713;DHT22;1872;51.406;6.856;2023-02-22T08:05:01;5.80;99.90
3713;DHT22;1872;51.406;6.856;2023-02-22T08:07:27;5.90;99.90
3713;DHT22;1872;51.406;6.856;2023-02-22T08:09:53;6.00;99.90
3713;DHT22;1872;51.406;6.856;2023-02-22T08:12:18;6.10;99.90
3713;DHT22;1872;51.406;6.856;2023-02-22T08:14:44;6.20;99.90
3713;DHT22;1872;51.406;6.856;2023-02-22T08:17:10;6.30;99.90
3713;DHT22;1872;51.406;6.856;2023-02-22T08:19:35;6.40;99.90
3713;DHT22;1872;51.406;6.856;2023-02-22T08:22:02;6.50;99.90
3713;DHT22;1872;51.406;6.856;2023-02-22T08:24:27;6.60;99.90
3713;DHT22;1872;51.406;6.856;2023-02-22T08:26:54;6.70;99.90
3713;DHT22;1872;51.406;6.856;2023-02-22T08:29:20;6.80;99.90
3713;DHT22;1872;51.406;6.856;2023-02-22T08:31:50;6.90;99.90
3713;DHT22;1872;51.406;6.856;2023-02-22T08:34:18;7.00;99.90
3713;DHT22;1872;51.406;6.856;2023-02-22T08:36:44;7.10;99.90
3713;DHT22;1872;51.406;6.856;2023-02-22T08:39:10;7.20;99.90
3713;DHT22;1872;51.406;6.856;2023-02-22T08:41:36;7.30;99.90
3713;DHT22;1872;51.406;6.856;2023-02-22T08:44:01;7.40;99.90
3713;DHT22;1872;51.406;6.856;2023-02-22T08:46:27;7.40;99.90
3713;DHT22;1872;51.406;6.856;2023-02-22T08:48:53;7.50;99.90
3713;DHT22;1872;51.406;6.856;2023-02-22T08:51:19;7.60;99.90
3713;DHT22;1872;51.406;6.856;2023-02-22T08:53:45;7.70;99.90
3713;DHT22;1872;51.406;6.856;2023-02-22T08:56:11;7.80;99.90
3713;DHT22;1872;51.406;6.856;2023-02-22T08:58:36;7.90;99.90
3713;DHT22;1872;51.406;6.856;2023-02-22T09:01:02;7.90;99.90
3713;DHT22;1872;51.406;6.856;2023-02-22T09:03:28;8.10;99.90
3713;DHT22;1872;51.406;6.856;2023-02-22T09:05:54;8.20;99.90
3713;DHT22;1872;51.406;6.856;2023-02-22T09:08:20;8.30;99.90
3713;DHT22;1872;51.406;6.856;2023-02-22T09:10:46;8.40;99.90
3713;DHT22;1872;51.406;6.856;2023-02-22T09:13:14;8.60;99.90
3713;DHT22;1872;51.406;6.856;2023-02-22T09:15:39;8.70;99.90
3713;DHT22;1872;51.406;6.856;2023-02-22T09:18:07;8.80;99.90
3713;DHT22;1872;51.406;6.856;2023-02-22T09:20:34;8.90;99.90
3713;DHT22;1872;51.406;6.856;2023-02-22T09:23:01;9.10;99.90
3713;DHT22;1872;51.406;6.856;2023-02-22T09:25:30;9.20;99.90
3713;DHT22;1872;51.406;6.856;2023-02-22T09:27:56;9.30;99.90
3713;DHT22;1872;51.406;6.856;2023-02-22T09:30:26;9.40;99.90
3713;DHT22;1872;51.406;6.856;2023-02-22T09:32:54;9.50;99.90
3713;DHT22;1872;51.406;6.856;2023-02-22T09:35:20;9.60;99.90
3713;DHT22;1872;51.406;6.856;2023-02-22T09:37:52;9.70;99.90
3713;DHT22;1872;51.406;6.856;2023-02-22T09:40:18;9.80;99.90
3713;DHT22;1872;51.406;6.856;2023-02-22T09:43:00;9.90;99.90
3713;DHT22;1872;51.406;6.856;2023-02-22T09:45:35;10.00;99.90
3713;DHT22;1872;51.406;6.856;2023-02-22T09:48:06;10.10;99.90
3713;DHT22;1872;51.406;6.856;2023-02-22T09:50:37;10.20;99.90
3713;DHT22;1872;51.406;6.856;2023-02-22T09:55:45;10.40;99.90
3713;DHT22;1872;51.406;6.856;2023-02-22T09:58:45;10.50;99.90
3713;DHT22;1872;51.406;6.856;2023-02-22T10:01:29;10.60;99.90
3713;DHT22;1872;51.406;6.856;2023-02-22T10:04:20;10.70;99.90
3713;DHT22;1872;51.406;6.856;2023-02-22T10:07:00;10.70;99.90
3713;DHT22;1872;51.406;6.856;2023-02-22T10:09:36;10.80;99.90
3713;DHT22;1872;51.406;6.856;2023-02-22T10:26:04;11.20;99.90
3713;DHT22;1872;51.406;6.856;2023-02-22T10:28:45;11.30;99.90
3713;DHT22;1872;51.406;6.856;2023-02-22T10:31:22;11.40;99.90
3713;DHT22;1872;51.406;6.856;2023-02-22T10:33:54;11.40;99.90
3713;DHT22;1872;51.406;6.856;2023-02-22T10:36:23;11.50;99.90
3713;DHT22;1872;51.406;6.856;2023-02-22T10:39:26;11.60;99.90
3713;DHT22;1872;51.406;6.856;2023-02-22T10:41:56;11.60;99.90
3713;DHT22;1872;51.406;6.856;2023-02-22T10:44:22;11.70;99.90
3713;DHT22;1872;51.406;6.856;2023-02-22T10:46:47;11.80;99.90
3713;DHT22;1872;51.406;6.856;2023-02-22T10:49:20;11.80;99.90
3713;DHT22;1872;51.406;6.856;2023-02-22T10:52:01;11.90;99.90
3713;DHT22;1872;51.406;6.856;2023-02-22T10:54:37;11.90;99.90
3713;DHT22;1872;51.406;6.856;2023-02-22T10:57:04;12.00;99.90
3713;DHT22;1872;51.406;6.856;2023-02-22T10:59:37;12.10;99.90
3713;DHT22;1872;51.406;6.856;2023-02-22T11:02:29;12.10;99.90
3713;DHT22;1872;51.406;6.856;2023-02-22T11:04:57;12.20;99.90
3713;DHT22;1872;51.406;6.856;2023-02-22T11:07:33;12.30;99.90
3713;DHT22;1872;51.406;6.856;2023-02-22T11:10:04;12.30;99.90
3713;DHT22;1872;51.406;6.856;2023-02-22T11:12:35;12.30;99.90
3713;DHT22;1872;51.406;6.856;2023-02-22T11:17:50;12.40;99.90
3713;DHT22;1872;51.406;6.856;2023-02-22T11:20:24;12.50;99.90
3713;DHT22;1872;51.406;6.856;2023-02-22T11:22:54;12.50;99.90
3713;DHT22;1872;51.406;6.856;2023-02-22T11:25:25;12.60;99.90
3713;DHT22;1872;51.406;6.856;2023-02-22T11:27:51;12.60;99.90
3713;DHT22;1872;51.406;6.856;2023-02-22T11:30:27;12.70;99.90
3713;DHT22;1872;51.406;6.856;2023-02-22T11:35:34;12.70;99.90
3713;DHT22;1872;51.406;6.856;2023-02-22T11:38:20;12.80;99.90
3713;DHT22;1872;51.406;6.856;2023-02-22T11:40:47;12.80;99.90
3713;DHT22;1872;51.406;6.856;2023-02-22T11:43:29;12.90;99.90
3713;DHT22;1872;51.406;6.856;2023-02-22T11:46:29;12.90;99.90
3713;DHT22;1872;51.406;6.856;2023-02-22T11:49:10;13.00;99.90
3713;DHT22;1872;51.406;6.856;2023-02-22T11:52:11;12.90;99.90
3713;DHT22;1872;51.406;6.856;2023-02-22T12:05:45;13.10;99.90
3713;DHT22;1872;51.406;6.856;2023-02-22T12:19:43;13.40;99.90
3713;DHT22;1872;51.406;6.856;2023-02-22T12:22:22;13.40;99.90
3713;DHT22;1872;51.406;6.856;2023-02-22T12:27:37;13.50;99.90
3713;DHT22;1872;51.406;6.856;2023-02-22T12:30:17;13.50;99.90
3713;DHT22;1872;51.406;6.856;2023-02-22T12:32:50;13.50;99.90
3713;DHT22;1872;51.406;6.856;2023-02-22T12:35:39;13.50;99.90
3713;DHT22;1872;51.406;6.856;2023-02-22T12:40:55;13.60;99.90
3713;DHT22;1872;51.406;6.856;2023-02-22T12:43:32;13.60;99.90
3713;DHT22;1872;51.406;6.856;2023-02-22T12:48:42;13.60;99.90
3713;DHT22;1872;51.406;6.856;2023-02-22T12:51:33;13.60;99.90
3713;DHT22;1872;51.406;6.856;2023-02-22T12:54:20;13.60;99.90
3713;DHT22;1872;51.406;6.856;2023-02-22T12:56:56;13.70;99.90
3713;DHT22;1872;51.406;6.856;2023-02-22T12:59:28;13.60;99.90
3713;DHT22;1872;51.406;6.856;2023-02-22T13:02:02;13.60;99.90
3713;DHT22;1872;51.406;6.856;2023-02-22T13:04:28;13.70;99.90
3713;DHT22;1872;51.406;6.856;2023-02-22T13:24:36;13.80;99.90
3713;DHT22;1872;51.406;6.856;2023-02-22T13:27:19;13.80;99.90
3713;DHT22;1872;51.406;6.856;2023-02-22T13:29:48;13.80;99.90
3713;DHT22;1872;51.406;6.856;2023-02-22T13:36:12;13.90;99.90
3713;DHT22;1872;51.406;6.856;2023-02-22T13:50:25;13.80;99.90
3713;DHT22;1872;51.406;6.856;2023-02-22T13:52:55;13.80;99.90
3713;DHT22;1872;51.406;6.856;2023-02-22T13:55:28;13.80;99.90
3713;DHT22;1872;51.406;6.856;2023-02-22T13:58:14;13.90;99.90
3713;DHT22;1872;51.406;6.856;2023-02-22T14:00:49;13.90;99.90
3713;DHT22;1872;51.406;6.856;2023-02-22T14:05:52;13.90;99.90
3713;DHT22;1872;51.406;6.856;2023-02-22T14:10:52;13.90;99.90
3713;DHT22;1872;51.406;6.856;2023-02-22T14:13:26;14.00;99.90
3713;DHT22;1872;51.406;6.856;2023-02-22T14:18:45;14.10;99.90
3713;DHT22;1872;51.406;6.856;2023-02-22T14:21:19;14.10;99.90
3713;DHT22;1872;51.406;6.856;2023-02-22T14:26:25;14.10;99.90
3713;DHT22;1872;51.406;6.856;2023-02-22T14:31:27;14.10;99.90
3713;DHT22;1872;51.406;6.856;2023-02-22T14:34:12;14.10;99.90
3713;DHT22;1872;51.406;6.856;2023-02-22T14:45:02;14.00;99.90
3713;DHT22;1872;51.406;6.856;2023-02-22T14:50:18;13.80;99.90
3713;DHT22;1872;51.406;6.856;2023-02-22T14:52:59;13.80;99.90
3713;DHT22;1872;51.406;6.856;2023-02-22T14:55:26;13.80;99.90
3713;DHT22;1872;51.406;6.856;2023-02-22T14:58:15;13.70;99.90
3713;DHT22;1872;51.406;6.856;2023-02-22T15:00:48;13.70;99.90
3713;DHT22;1872;51.406;6.856;2023-02-22T15:03:26;13.70;99.90
3713;DHT22;1872;51.406;6.856;2023-02-22T15:06:24;13.70;99.90
3713;DHT22;1872;51.406;6.856;2023-02-22T15:09:14;13.70;99.90
3713;DHT22;1872;51.406;6.856;2023-02-22T15:12:09;13.80;99.90
3713;DHT22;1872;51.406;6.856;2023-02-22T15:14:36;13.70;99.90
3713;DHT22;1872;51.406;6.856;2023-02-22T15:17:23;13.70;99.90
3713;DHT22;1872;51.406;6.856;2023-02-22T15:19:50;13.80;99.90
3713;DHT22;1872;51.406;6.856;2023-02-22T15:22:30;13.80;99.90
3713;DHT22;1872;51.406;6.856;2023-02-22T15:25:05;13.80;99.90
3713;DHT22;1872;51.406;6.856;2023-02-22T15:27:33;13.80;99.90
3713;DHT22;1872;51.406;6.856;2023-02-22T15:30:13;13.80;99.90
3713;DHT22;1872;51.406;6.856;2023-02-22T15:32:41;13.80;99.90
3713;DHT22;1872;51.406;6.856;2023-02-22T15:37:41;13.80;99.90
3713;DHT22;1872;51.406;6.856;2023-02-22T15:40:14;13.70;99.90
3713;DHT22;1872;51.406;6.856;2023-02-22T15:42:48;13.70;99.90
3713;DHT22;1872;51.406;6.856;2023-02-22T15:45:17;13.60;99.90
3713;DHT22;1872;51.406;6.856;2023-02-22T15:47:44;13.50;99.90
3713;DHT22;1872;51.406;6.856;2023-02-22T15:50:14;13.50;99.90
3713;DHT22;1872;51.406;6.856;2023-02-22T15:55:20;13.40;99.90
3713;DHT22;1872;51.406;6.856;2023-02-22T15:57:46;13.40;99.90
3713;DHT22;1872;51.406;6.856;2023-02-22T16:00:19;13.30;99.90
3713;DHT22;1872;51.406;6.856;2023-02-22T16:02:46;13.30;99.90
3713;DHT22;1872;51.406;6.856;2023-02-22T16:05:13;13.30;99.90
3713;DHT22;1872;51.406;6.856;2023-02-22T16:07:45;13.20;99.90
3713;DHT22;1872;51.406;6.856;2023-02-22T16:10:45;13.20;99.90
3713;DHT22;1872;51.406;6.856;2023-02-22T16:13:22;13.10;99.90
3713;DHT22;1872;51.406;6.856;2023-02-22T16:16:00;13.10;99.90
3713;DHT22;1872;51.406;6.856;2023-02-22T16:18:47;13.00;99.90
3713;DHT22;1872;51.406;6.856;2023-02-22T16:21:15;13.00;99.90
3713;DHT22;1872;51.406;6.856;2023-02-22T16:23:46;12.90;99.90
3713;DHT22;1872;51.406;6.856;2023-02-22T16:31:27;12.70;99.90
3713;DHT22;1872;51.406;6.856;2023-02-22T16:33:53;12.70;99.90
3713;DHT22;1872;51.406;6.856;2023-02-22T16:36:36;12.60;99.90
3713;DHT22;1872;51.406;6.856;2023-02-22T16:39:05;12.60;99.90
3713;DHT22;1872;51.406;6.856;2023-02-22T16:41:32;12.50;99.90
3713;DHT22;1872;51.406;6.856;2023-02-22T16:43:58;12.50;99.90
3713;DHT22;1872;51.406;6.856;2023-02-22T16:46:24;12.50;99.90
3713;DHT22;1872;51.406;6.856;2023-02-22T16:48:50;12.40;99.90
3713;DHT22;1872;51.406;6.856;2023-02-22T16:51:26;12.40;99.90
3713;DHT22;1872;51.406;6.856;2023-02-22T16:53:55;12.40;99.90
3713;DHT22;1872;51.406;6.856;2023-02-22T16:56:28;12.30;99.90
3713;DHT22;1872;51.406;6.856;2023-02-22T16:58:55;12.30;99.90
3713;DHT22;1872;51.406;6.856;2023-02-22T17:01:21;12.30;99.90
3713;DHT22;1872;51.406;6.856;2023-02-22T17:03:47;12.20;99.90
3713;DHT22;1872;51.406;6.856;2023-02-22T17:06:15;12.20;99.90
3713;DHT22;1872;51.406;6.856;2023-02-22T17:08:42;12.20;99.90
3713;DHT22;1872;51.406;6.856;2023-02-22T17:11:10;12.10;99.90
3713;DHT22;1872;51.406;6.856;2023-02-22T17:13:36;12.00;99.90
3713;DHT22;1872;51.406;6.856;2023-02-22T17:16:05;12.00;99.90
3713;DHT22;1872;51.406;6.856;2023-02-22T17:18:31;12.00;99.90
3713;DHT22;1872;51.406;6.856;2023-02-22T17:20:59;12.00;99.90
3713;DHT22;1872;51.406;6.856;2023-02-22T17:23:26;11.90;99.90
3713;DHT22;1872;51.406;6.856;2023-02-22T17:25:53;11.90;99.90
3713;DHT22;1872;51.406;6.856;2023-02-22T17:28:19;11.90;99.90
3713;DHT22;1872;51.406;6.856;2023-02-22T17:30:45;11.90;99.90
3713;DHT22;1872;51.406;6.856;2023-02-22T17:33:23;11.90;99.90
3713;DHT22;1872;51.406;6.856;2023-02-22T17:35:52;11.90;99.90
3713;DHT22;1872;51.406;6.856;2023-02-22T17:38:18;11.90;99.90
3713;DHT22;1872;51.406;6.856;2023-02-22T17:40:45;11.90;99.90
3713;DHT22;1872;51.406;6.856;2023-02-22T17:43:16;11.80;99.90
3713;DHT22;1872;51.406;6.856;2023-02-22T17:45:44;11.80;99.90
3713;DHT22;1872;51.406;6.856;2023-02-22T17:48:12;11.80;99.90
3713;DHT22;1872;51.406;6.856;2023-02-22T17:50:40;11.80;99.90
3713;DHT22;1872;51.406;6.856;2023-02-22T17:53:06;11.70;99.90
3713;DHT22;1872;51.406;6.856;2023-02-22T17:55:36;11.70;99.90
3713;DHT22;1872;51.406;6.856;2023-02-22T17:58:04;11.70;99.90
3713;DHT22;1872;51.406;6.856;2023-02-22T18:00:32;11.70;99.90
3713;DHT22;1872;51.406;6.856;2023-02-22T18:03:06;11.70;99.90
3713;DHT22;1872;51.406;6.856;2023-02-22T18:05:38;11.60;99.90
3713;DHT22;1872;51.406;6.856;2023-02-22T18:08:04;11.60;99.90
3713;DHT22;1872;51.406;6.856;2023-02-22T18:10:29;11.60;99.90
3713;DHT22;1872;51.406;6.856;2023-02-22T18:12:55;11.50;99.90
3713;DHT22;1872;51.406;6.856;2023-02-22T18:15:21;11.40;99.90
3713;DHT22;1872;51.406;6.856;2023-02-22T18:17:47;11.30;99.90
3713;DHT22;1872;51.406;6.856;2023-02-22T18:20:14;11.30;99.90
3713;DHT22;1872;51.406;6.856;2023-02-22T18:22:42;11.30;99.90
3713;DHT22;1872;51.406;6.856;2023-02-22T18:25:13;11.20;99.90
3713;DHT22;1872;51.406;6.856;2023-02-22T18:27:41;11.20;99.90
3713;DHT22;1872;51.406;6.856;2023-02-22T18:30:09;11.10;99.90
3713;DHT22;1872;51.406;6.856;2023-02-22T18:32:37;11.10;99.90
3713;DHT22;1872;51.406;6.856;2023-02-22T18:35:03;11.10;99.90
3713;DHT22;1872;51.406;6.856;2023-02-22T18:37:29;11.10;99.90
3713;DHT22;1872;51.406;6.856;2023-02-22T18:39:56;11.10;99.90
3713;DHT22;1872;51.406;6.856;2023-02-22T18:42:26;11.10;99.90
3713;DHT22;1872;51.406;6.856;2023-02-22T18:44:55;11.10;99.90
3713;DHT22;1872;51.406;6.856;2023-02-22T18:47:25;11.10;99.90
3713;DHT22;1872;51.406;6.856;2023-02-22T18:49:50;11.10;99.90
3713;DHT22;1872;51.406;6.856;2023-02-22T18:52:16;11.10;99.90
3713;DHT22;1872;51.406;6.856;2023-02-22T18:54:43;11.10;99.90
3713;DHT22;1872;51.406;6.856;2023-02-22T18:57:10;11.10;99.90